Scarborough, United Kingdom
Current Conditions -  °F | °C
As of 10:50 PM on Friday 28 Nov 2014 (Local Time) from EGXV Reporting Station
Haze Haze  
Wind Chill: 10°   Ceiling: 900
Heat Index: 10°   Visibility: 2.8mi
Dew Point:   Wind: 6mph
Humidity: 94%   Direction: 90°E
Pressure: 29.83"   Gusts: NA
Location:  54.28°N, 0.4°W
Report Text: EGXV 282250Z AUTO 09005KT 4500 BR OVC009/// 10/09 Q1010
Loading
Personal Weather Stations






























Interactive Weather Map New forecast layout! Learn more

10-Day Weather Forecast

Advertisements
Track Severe Weather on mobile